Aviation Digital Data Service (ADDS)

Output produced by METARs form (1447 UTC 22 November 2017)
found at http://aviationweather.gov/adds/metars/
 
KHUM 221120Z 2212/2312 01008KT P6SM SKC 
     FM231100 35009KT P6SM SKC